Weather

The location could not be found.

 

 

For a detailed forecast click the banner below.

ballooncastlogo

 

 

Available data for KABQ from the past 2 hours
ALBUQUERQUE, NM
Metar
KABQ 232152Z 00000KT 10SM FEW080 BKN110 30/11 A3028 RMK AO2 SLP164 T03000111

21:52 UTC

Wind: 0° 0kt

Visibility: 10 SM

Sky: FEW 8000 ft

Temp: 30 deg C / 86 deg F

Dewpoint: 11 deg C / 51.8 deg F

Pressure: 30.28 inHg

TAF
KABQ 232018Z 2320/2418 18007KT P6SM BKN060 FM232200 12010G20KT P6SM VCTS BKN060CB FM240100 14010KT P6SM BKN070 FM240400 13005KT P6SM BKN080 FM241700 19006KT P6SM SCT050